Nagua, Dominican Republic
Current Conditions -  °F | °C
As of 12:00 PM on Sunday 25 Jan 2015 (Local Time) from MDCY Reporting Station
Scattered Clouds Scattered Clouds  
Wind Chill: 79°   Ceiling: Unl
Heat Index: 82°   Visibility: 6mi
Dew Point: 73°   Wind: 7mph
Humidity: 83%   Direction: 230°SW
Pressure: 29.97"   Gusts: NA
Location:  19.38°N, 69.85°W
Report Text: MDCY 251600Z 23006KT 9999 SCT020 26/23 Q1015
Loading
Personal Weather Stations






























Interactive Weather Map New forecast layout! Learn more

10-Day Weather Forecast

Advertisements
Track Severe Weather on mobile